Time,TemperatureF,DewpointF,PressureIn,WindDirection,WindDirectionDegrees,WindSpeedMPH,WindSpeedGustMPH,Humidity,HourlyPrecipIn,Conditions,Clouds,dailyrainin,SolarRadiationWatts/m^2,SoftwareType,DateUTC
2015-06-29 00:09:00,69.7,57.0,29.91,West,267,0.0,0.0,64,0.00,,,0.00,0,weatherlink.com 1.10,2015-06-29 04:09:00,
2015-06-29 00:26:00,69.4,57.0,29.91,West,267,0.0,0.0,65,0.00,,,0.00,0,weatherlink.com 1.10,2015-06-29 04:26:00,
2015-06-29 00:43:00,69.1,57.0,29.91,West,267,0.0,0.0,65,0.00,,,0.00,0,weatherlink.com 1.10,2015-06-29 04:43:00,
2015-06-29 00:59:00,68.8,57.0,29.91,West,267,0.0,0.0,66,0.00,,,0.00,0,weatherlink.com 1.10,2015-06-29 04:59:00,
2015-06-29 01:17:00,68.5,56.0,29.91,West,271,0.0,1.0,65,0.00,,,0.00,0,weatherlink.com 1.10,2015-06-29 05:17:00,
2015-06-29 01:33:00,68.2,56.0,29.91,West,271,0.0,1.0,66,0.00,,,0.00,0,weatherlink.com 1.10,2015-06-29 05:33:00,
2015-06-29 01:50:00,67.9,57.0,29.91,West,271,0.0,0.0,67,0.00,,,0.00,0,weatherlink.com 1.10,2015-06-29 05:50:00,
2015-06-29 02:07:00,67.6,56.0,29.90,West,271,0.0,0.0,67,0.00,,,0.00,0,weatherlink.com 1.10,2015-06-29 06:07:00,
2015-06-29 02:24:00,67.1,56.0,29.90,West,271,0.0,0.0,67,0.00,,,0.00,0,weatherlink.com 1.10,2015-06-29 06:24:00,
2015-06-29 02:41:00,66.7,56.0,29.90,West,271,0.0,0.0,68,0.00,,,0.00,0,weatherlink.com 1.10,2015-06-29 06:41:00,
2015-06-29 02:58:00,66.1,56.0,29.90,West,271,0.0,0.0,69,0.00,,,0.00,0,weatherlink.com 1.10,2015-06-29 06:58:00,
2015-06-29 03:15:00,65.8,55.0,29.90,West,271,0.0,0.0,69,0.00,,,0.00,0,weatherlink.com 1.10,2015-06-29 07:15:00,
2015-06-29 03:32:00,65.4,55.0,29.90,West,271,0.0,0.0,69,0.00,,,0.00,0,weatherlink.com 1.10,2015-06-29 07:32:00,
2015-06-29 03:49:00,65.1,55.0,29.90,West,271,0.0,0.0,70,0.00,,,0.00,0,weatherlink.com 1.10,2015-06-29 07:49:00,
2015-06-29 04:05:00,64.7,55.0,29.90,West,271,0.0,0.0,71,0.00,,,0.00,0,weatherlink.com 1.10,2015-06-29 08:05:00,
2015-06-29 04:22:00,64.3,55.0,29.91,West,271,0.0,0.0,73,0.00,,,0.00,0,weatherlink.com 1.10,2015-06-29 08:22:00,
2015-06-29 04:39:00,63.8,55.0,29.91,West,271,0.0,0.0,72,0.00,,,0.00,0,weatherlink.com 1.10,2015-06-29 08:39:00,
2015-06-29 04:56:00,63.4,55.0,29.91,West,271,0.0,0.0,74,0.00,,,0.00,0,weatherlink.com 1.10,2015-06-29 08:56:00,
2015-06-29 05:14:00,63.0,55.0,29.91,West,271,0.0,0.0,75,0.00,,,0.00,0,weatherlink.com 1.10,2015-06-29 09:14:00,
2015-06-29 05:31:00,62.7,55.0,29.92,West,271,0.0,0.0,76,0.00,,,0.00,0,weatherlink.com 1.10,2015-06-29 09:31:00,
2015-06-29 05:48:00,62.4,55.0,29.93,West,271,0.0,0.0,78,0.00,,,0.00,0,weatherlink.com 1.10,2015-06-29 09:48:00,
2015-06-29 06:06:00,62.2,55.0,29.93,West,271,0.0,0.0,78,0.00,,,0.00,0,weatherlink.com 1.10,2015-06-29 10:06:00,
2015-06-29 06:23:00,62.0,56.0,29.93,West,271,0.0,0.0,80,0.00,,,0.00,0,weatherlink.com 1.10,2015-06-29 10:23:00,
2015-06-29 06:39:00,61.7,55.0,29.94,West,271,0.0,0.0,80,0.00,,,0.00,14,weatherlink.com 1.10,2015-06-29 10:39:00,
2015-06-29 06:56:00,61.6,55.0,29.95,West,271,0.0,0.0,80,0.00,,,0.00,25,weatherlink.com 1.10,2015-06-29 10:56:00,
2015-06-29 07:13:00,61.8,56.0,29.95,West,271,0.0,0.0,80,0.00,,,0.00,37,weatherlink.com 1.10,2015-06-29 11:13:00,
2015-06-29 07:30:00,62.9,56.0,29.95,West,271,0.0,0.0,78,0.00,,,0.00,46,weatherlink.com 1.10,2015-06-29 11:30:00,
2015-06-29 07:47:00,65.3,58.0,29.95,West,271,0.0,0.0,76,0.00,,,0.00,54,weatherlink.com 1.10,2015-06-29 11:47:00,
2015-06-29 08:04:00,67.6,57.0,29.95,West,267,0.0,1.0,70,0.00,,,0.00,63,weatherlink.com 1.10,2015-06-29 12:04:00,
2015-06-29 08:21:00,69.5,58.0,29.96,SSE,158,0.0,2.0,66,0.00,,,0.00,153,weatherlink.com 1.10,2015-06-29 12:21:00,
2015-06-29 08:38:00,71.8,57.0,29.96,WSW,246,0.0,3.0,60,0.00,,,0.00,114,weatherlink.com 1.10,2015-06-29 12:38:00,
2015-06-29 08:54:00,73.0,57.0,29.97,ESE,123,0.0,3.0,57,0.00,,,0.00,127,weatherlink.com 1.10,2015-06-29 12:54:00,
2015-06-29 09:11:00,74.1,56.0,29.97,East,94,0.0,3.0,54,0.00,,,0.00,501,weatherlink.com 1.10,2015-06-29 13:11:00,
2015-06-29 09:28:00,75.7,56.0,29.97,East,96,2.0,7.0,51,0.00,,,0.00,552,weatherlink.com 1.10,2015-06-29 13:28:00,
2015-06-29 09:46:00,76.9,57.0,29.97,SSE,161,0.0,8.0,50,0.00,,,0.00,610,weatherlink.com 1.10,2015-06-29 13:46:00,
2015-06-29 10:03:00,78.1,56.0,29.96,ESE,110,2.0,5.0,47,0.00,,,0.00,603,weatherlink.com 1.10,2015-06-29 14:03:00,
2015-06-29 10:20:00,78.9,57.0,29.96,SSW,196,2.0,8.0,47,0.00,,,0.00,698,weatherlink.com 1.10,2015-06-29 14:20:00,
2015-06-29 10:37:00,80.2,57.0,29.96,SE,126,4.0,6.0,45,0.00,,,0.00,780,weatherlink.com 1.10,2015-06-29 14:37:00,
2015-06-29 10:54:00,81.0,58.0,29.96,SE,129,0.0,7.0,45,0.00,,,0.00,786,weatherlink.com 1.10,2015-06-29 14:54:00,
2015-06-29 11:11:00,82.1,57.0,29.95,East,88,0.0,7.0,43,0.00,,,0.00,823,weatherlink.com 1.10,2015-06-29 15:11:00,
2015-06-29 11:28:00,83.2,58.0,29.95,SSE,155,0.0,5.0,43,0.00,,,0.00,851,weatherlink.com 1.10,2015-06-29 15:28:00,
2015-06-29 11:45:00,84.3,58.0,29.95,South,173,0.0,5.0,41,0.00,,,0.00,879,weatherlink.com 1.10,2015-06-29 15:45:00,
2015-06-29 12:02:00,84.7,60.0,29.95,North,5,0.0,4.0,43,0.00,,,0.00,900,weatherlink.com 1.10,2015-06-29 16:02:00,
2015-06-29 12:19:00,85.5,59.0,29.95,SSE,168,0.0,4.0,41,0.00,,,0.00,986,weatherlink.com 1.10,2015-06-29 16:19:00,
2015-06-29 12:36:00,85.2,59.0,29.95,ESE,123,1.0,6.0,41,0.00,,,0.00,211,weatherlink.com 1.10,2015-06-29 16:36:00,
2015-06-29 12:53:00,84.7,59.0,29.94,East,88,1.0,7.0,42,0.00,,,0.00,1053,weatherlink.com 1.10,2015-06-29 16:53:00,
2015-06-29 13:09:00,86.2,58.0,29.94,SE,146,1.0,3.0,39,0.00,,,0.00,209,weatherlink.com 1.10,2015-06-29 17:09:00,
2015-06-29 13:26:00,84.8,58.0,29.94,East,80,2.0,4.0,40,0.00,,,0.00,422,weatherlink.com 1.10,2015-06-29 17:26:00,
2015-06-29 13:43:00,85.8,59.0,29.93,NW,317,0.0,5.0,41,0.00,,,0.00,209,weatherlink.com 1.10,2015-06-29 17:43:00,
2015-06-29 14:00:00,86.2,58.0,29.93,South,182,0.0,3.0,39,0.00,,,0.00,990,weatherlink.com 1.10,2015-06-29 18:00:00,
2015-06-29 14:17:00,88.6,59.0,29.93,SSW,195,0.0,3.0,37,0.00,,,0.00,884,weatherlink.com 1.10,2015-06-29 18:17:00,
2015-06-29 14:34:00,89.2,58.0,29.93,SSE,163,0.0,3.0,35,0.00,,,0.00,765,weatherlink.com 1.10,2015-06-29 18:34:00,
2015-06-29 14:51:00,88.9,60.0,29.92,SW,215,1.0,4.0,38,0.00,,,0.00,865,weatherlink.com 1.10,2015-06-29 18:51:00,
2015-06-29 15:08:00,89.7,58.0,29.92,South,169,0.0,2.0,34,0.00,,,0.00,779,weatherlink.com 1.10,2015-06-29 19:08:00,
2015-06-29 15:25:00,90.1,59.0,29.91,SSW,193,0.0,2.0,35,0.00,,,0.00,803,weatherlink.com 1.10,2015-06-29 19:25:00,
2015-06-29 15:42:00,89.8,58.0,29.91,SSE,153,2.0,4.0,34,0.00,,,0.00,765,weatherlink.com 1.10,2015-06-29 19:42:00,
2015-06-29 15:59:00,89.0,57.0,29.90,South,175,1.0,4.0,34,0.00,,,0.00,744,weatherlink.com 1.10,2015-06-29 19:59:00,
2015-06-29 16:16:00,89.5,57.0,29.90,South,175,0.0,2.0,33,0.00,,,0.00,715,weatherlink.com 1.10,2015-06-29 20:16:00,
2015-06-29 16:33:00,90.4,56.0,29.89,SSE,162,1.0,2.0,31,0.00,,,0.00,673,weatherlink.com 1.10,2015-06-29 20:33:00,
2015-06-29 16:50:00,90.9,55.0,29.89,SE,141,0.0,3.0,30,0.00,,,0.00,636,weatherlink.com 1.10,2015-06-29 20:50:00,
2015-06-29 17:07:00,90.6,56.0,29.89,NW,309,1.0,3.0,31,0.00,,,0.00,573,weatherlink.com 1.10,2015-06-29 21:07:00,
2015-06-29 17:24:00,90.0,56.0,29.89,SSW,207,1.0,1.0,32,0.00,,,0.00,209,weatherlink.com 1.10,2015-06-29 21:24:00,
2015-06-29 17:41:00,89.2,55.0,29.89,SSE,153,0.0,2.0,32,0.00,,,0.00,121,weatherlink.com 1.10,2015-06-29 21:41:00,
2015-06-29 17:58:00,88.0,57.0,29.88,NE,53,0.0,2.0,35,0.00,,,0.00,76,weatherlink.com 1.10,2015-06-29 21:58:00,
2015-06-29 18:15:00,87.0,58.0,29.88,NE,51,0.0,1.0,37,0.00,,,0.00,65,weatherlink.com 1.10,2015-06-29 22:15:00,
2015-06-29 18:32:00,86.1,58.0,29.88,North,5,0.0,2.0,39,0.00,,,0.00,51,weatherlink.com 1.10,2015-06-29 22:32:00,
2015-06-29 18:49:00,85.4,60.0,29.88,North,11,0.0,0.0,42,0.00,,,0.00,42,weatherlink.com 1.10,2015-06-29 22:49:00,
2015-06-29 19:06:00,84.7,60.0,29.89,NNE,17,0.0,2.0,43,0.00,,,0.00,37,weatherlink.com 1.10,2015-06-29 23:06:00,
2015-06-29 19:23:00,84.0,59.0,29.89,NNE,18,0.0,0.0,43,0.00,,,0.00,32,weatherlink.com 1.10,2015-06-29 23:23:00,